Mansfield, Washington
Current Conditions -  °F | °C
As of 11:53 PM on Sunday 23 Nov 2014 (Local Time) from KEPH Reporting Station
Clear Clear  
Wind Chill: 39°   Ceiling: Unl
Heat Index: 44°   Visibility: 10mi
Dew Point: 28°   Wind: 10mph
Humidity: 53%   Direction: 210°SSW
Pressure: 30.21"   Gusts: NA
Location:  47.81°N, 119.64°W
Report Text: KEPH 240753Z AUTO 21009KT 10SM CLR 07/M02 A3021 RMK AO2 SLP237 T00671022 401061017 $
Loading
Personal Weather Stations






























Interactive Weather Map New forecast layout! Learn more

10-Day Weather Forecast

Advertisements
Track Severe Weather on mobile